Rhodes Point, Maryland
Current Conditions -  °F | °C
As of 11:59 AM on Thursday 27 Nov 2014 (Local Time) from KTGI Reporting Station
Overcast Overcast  
Wind Chill: 37°   Ceiling: 2500
Heat Index: 43°   Visibility: 10mi
Dew Point: 37°   Wind: 9mph
Humidity: 81%   Direction: 360°N
Pressure: 30.03"   Gusts: NA
Location:  38.0048°N, 75.999°W
Report Text: KTGI 271659Z AUTO 36008KT 10SM BKN025 OVC032 06/03 A3003 RMK AO1
Loading
Personal Weather Stations






























Interactive Weather Map New forecast layout! Learn more

10-Day Weather Forecast

Advertisements
Track Severe Weather on mobile